sensor_id;sensor_type;location;lat;lon;timestamp;P1;durP1;ratioP1;P2;durP2;ratioP2
8407;SDS011;4241;48.452;9.216;2023-10-13T00:01:09;491.07;;;246.87;;
8407;SDS011;4241;48.452;9.216;2023-10-13T00:03:37;489.47;;;244.90;;
8407;SDS011;4241;48.452;9.216;2023-10-13T00:06:05;489.43;;;243.37;;
8407;SDS011;4241;48.452;9.216;2023-10-13T00:08:33;495.50;;;252.57;;
8407;SDS011;4241;48.452;9.216;2023-10-13T00:11:01;494.10;;;246.53;;
8407;SDS011;4241;48.452;9.216;2023-10-13T00:13:29;491.53;;;246.43;;
8407;SDS011;4241;48.452;9.216;2023-10-13T00:16:07;496.93;;;248.17;;
8407;SDS011;4241;48.452;9.216;2023-10-13T00:18:42;488.37;;;241.60;;
8407;SDS011;4241;48.452;9.216;2023-10-13T00:21:09;494.17;;;246.60;;
8407;SDS011;4241;48.452;9.216;2023-10-13T00:23:40;488.37;;;238.77;;
8407;SDS011;4241;48.452;9.216;2023-10-13T00:26:17;493.73;;;244.90;;
8407;SDS011;4241;48.452;9.216;2023-10-13T00:28:48;491.70;;;238.73;;
8407;SDS011;4241;48.452;9.216;2023-10-13T00:31:25;489.33;;;238.37;;
8407;SDS011;4241;48.452;9.216;2023-10-13T00:33:57;490.20;;;239.10;;
8407;SDS011;4241;48.452;9.216;2023-10-13T00:36:28;487.47;;;238.87;;
8407;SDS011;4241;48.452;9.216;2023-10-13T00:38:57;489.63;;;240.10;;
8407;SDS011;4241;48.452;9.216;2023-10-13T00:41:24;488.87;;;242.63;;
8407;SDS011;4241;48.452;9.216;2023-10-13T00:44:15;486.17;;;235.43;;
8407;SDS011;4241;48.452;9.216;2023-10-13T00:46:43;489.37;;;239.27;;
8407;SDS011;4241;48.452;9.216;2023-10-13T00:49:10;487.17;;;239.30;;
8407;SDS011;4241;48.452;9.216;2023-10-13T00:51:40;493.90;;;244.93;;
8407;SDS011;4241;48.452;9.216;2023-10-13T00:54:12;489.40;;;239.73;;
8407;SDS011;4241;48.452;9.216;2023-10-13T00:56:43;490.03;;;239.03;;
8407;SDS011;4241;48.452;9.216;2023-10-13T00:59:14;495.87;;;245.60;;
8407;SDS011;4241;48.452;9.216;2023-10-13T01:01:42;489.73;;;239.80;;
8407;SDS011;4241;48.452;9.216;2023-10-13T01:04:09;490.50;;;239.10;;
8407;SDS011;4241;48.452;9.216;2023-10-13T01:06:37;487.90;;;232.80;;
8407;SDS011;4241;48.452;9.216;2023-10-13T01:09:04;495.93;;;241.07;;
8407;SDS011;4241;48.452;9.216;2023-10-13T01:11:38;487.77;;;233.97;;
8407;SDS011;4241;48.452;9.216;2023-10-13T01:14:05;494.23;;;239.77;;
8407;SDS011;4241;48.452;9.216;2023-10-13T01:16:31;485.97;;;231.97;;
8407;SDS011;4241;48.452;9.216;2023-10-13T01:18:59;495.17;;;237.73;;
8407;SDS011;4241;48.452;9.216;2023-10-13T01:21:30;486.50;;;232.00;;
8407;SDS011;4241;48.452;9.216;2023-10-13T01:23:59;493.77;;;236.93;;
8407;SDS011;4241;48.452;9.216;2023-10-13T01:26:27;485.47;;;227.80;;
8407;SDS011;4241;48.452;9.216;2023-10-13T01:28:56;489.73;;;231.27;;
8407;SDS011;4241;48.452;9.216;2023-10-13T01:31:23;484.07;;;224.87;;
8407;SDS011;4241;48.452;9.216;2023-10-13T01:33:52;490.53;;;229.40;;
8407;SDS011;4241;48.452;9.216;2023-10-13T01:36:20;484.80;;;223.70;;
8407;SDS011;4241;48.452;9.216;2023-10-13T01:38:47;488.40;;;226.73;;
8407;SDS011;4241;48.452;9.216;2023-10-13T01:41:16;485.73;;;227.47;;
8407;SDS011;4241;48.452;9.216;2023-10-13T01:43:44;483.97;;;219.87;;
8407;SDS011;4241;48.452;9.216;2023-10-13T01:46:10;487.17;;;225.10;;
8407;SDS011;4241;48.452;9.216;2023-10-13T01:48:38;485.20;;;220.47;;
8407;SDS011;4241;48.452;9.216;2023-10-13T01:51:05;487.07;;;223.43;;
8407;SDS011;4241;48.452;9.216;2023-10-13T01:53:35;482.80;;;217.33;;
8407;SDS011;4241;48.452;9.216;2023-10-13T01:56:02;485.53;;;220.17;;
8407;SDS011;4241;48.452;9.216;2023-10-13T01:58:36;483.33;;;215.37;;
8407;SDS011;4241;48.452;9.216;2023-10-13T02:01:06;487.93;;;220.03;;
8407;SDS011;4241;48.452;9.216;2023-10-13T02:03:34;482.47;;;212.43;;
8407;SDS011;4241;48.452;9.216;2023-10-13T02:06:06;487.23;;;215.60;;
8407;SDS011;4241;48.452;9.216;2023-10-13T02:08:35;482.13;;;210.60;;
8407;SDS011;4241;48.452;9.216;2023-10-13T02:11:07;482.40;;;208.10;;
8407;SDS011;4241;48.452;9.216;2023-10-13T02:13:34;479.43;;;205.43;;
8407;SDS011;4241;48.452;9.216;2023-10-13T02:16:07;484.80;;;211.83;;
8407;SDS011;4241;48.452;9.216;2023-10-13T02:18:36;483.73;;;207.97;;
8407;SDS011;4241;48.452;9.216;2023-10-13T02:21:07;483.90;;;209.47;;
8407;SDS011;4241;48.452;9.216;2023-10-13T02:23:38;484.77;;;211.10;;
8407;SDS011;4241;48.452;9.216;2023-10-13T02:26:09;481.73;;;205.47;;
8407;SDS011;4241;48.452;9.216;2023-10-13T02:28:39;485.13;;;208.67;;
8407;SDS011;4241;48.452;9.216;2023-10-13T02:31:05;479.70;;;204.77;;
8407;SDS011;4241;48.452;9.216;2023-10-13T02:33:32;486.63;;;208.33;;
8407;SDS011;4241;48.452;9.216;2023-10-13T02:36:00;481.43;;;206.07;;
8407;SDS011;4241;48.452;9.216;2023-10-13T02:38:29;484.30;;;206.63;;
8407;SDS011;4241;48.452;9.216;2023-10-13T02:41:00;474.90;;;196.20;;
8407;SDS011;4241;48.452;9.216;2023-10-13T02:43:31;483.47;;;206.27;;
8407;SDS011;4241;48.452;9.216;2023-10-13T02:46:03;480.60;;;201.57;;
8407;SDS011;4241;48.452;9.216;2023-10-13T02:48:29;477.13;;;200.40;;
8407;SDS011;4241;48.452;9.216;2023-10-13T02:51:05;486.10;;;207.53;;
8407;SDS011;4241;48.452;9.216;2023-10-13T02:53:40;480.00;;;200.73;;
8407;SDS011;4241;48.452;9.216;2023-10-13T02:56:07;483.10;;;202.83;;
8407;SDS011;4241;48.452;9.216;2023-10-13T02:58:33;477.33;;;197.60;;
8407;SDS011;4241;48.452;9.216;2023-10-13T03:01:11;481.67;;;202.10;;
8407;SDS011;4241;48.452;9.216;2023-10-13T03:03:44;478.63;;;199.50;;
8407;SDS011;4241;48.452;9.216;2023-10-13T03:06:15;475.13;;;193.83;;
8407;SDS011;4241;48.452;9.216;2023-10-13T03:08:42;483.27;;;201.10;;
8407;SDS011;4241;48.452;9.216;2023-10-13T03:11:09;480.80;;;198.27;;
8407;SDS011;4241;48.452;9.216;2023-10-13T03:13:36;481.30;;;201.97;;
8407;SDS011;4241;48.452;9.216;2023-10-13T03:16:13;477.77;;;196.10;;
8407;SDS011;4241;48.452;9.216;2023-10-13T03:18:43;483.40;;;202.93;;
8407;SDS011;4241;48.452;9.216;2023-10-13T03:21:19;476.30;;;195.13;;
8407;SDS011;4241;48.452;9.216;2023-10-13T03:23:58;479.93;;;194.77;;
8407;SDS011;4241;48.452;9.216;2023-10-13T03:26:30;482.07;;;194.67;;
8407;SDS011;4241;48.452;9.216;2023-10-13T03:29:01;477.17;;;190.43;;
8407;SDS011;4241;48.452;9.216;2023-10-13T03:31:30;483.10;;;197.30;;
8407;SDS011;4241;48.452;9.216;2023-10-13T03:34:02;475.50;;;191.10;;
8407;SDS011;4241;48.452;9.216;2023-10-13T03:36:29;477.13;;;193.90;;
8407;SDS011;4241;48.452;9.216;2023-10-13T03:39:16;480.47;;;192.80;;
8407;SDS011;4241;48.452;9.216;2023-10-13T03:41:43;475.73;;;188.63;;
8407;SDS011;4241;48.452;9.216;2023-10-13T03:44:18;478.00;;;192.30;;
8407;SDS011;4241;48.452;9.216;2023-10-13T03:46:46;475.80;;;191.47;;
8407;SDS011;4241;48.452;9.216;2023-10-13T03:49:14;475.20;;;187.50;;
8407;SDS011;4241;48.452;9.216;2023-10-13T03:51:46;478.03;;;193.37;;
8407;SDS011;4241;48.452;9.216;2023-10-13T03:54:14;476.17;;;190.90;;
8407;SDS011;4241;48.452;9.216;2023-10-13T03:56:42;476.40;;;190.57;;
8407;SDS011;4241;48.452;9.216;2023-10-13T03:59:10;475.80;;;189.20;;
8407;SDS011;4241;48.452;9.216;2023-10-13T04:01:44;482.27;;;192.00;;
8407;SDS011;4241;48.452;9.216;2023-10-13T04:04:14;474.13;;;188.00;;
8407;SDS011;4241;48.452;9.216;2023-10-13T04:06:58;475.00;;;185.90;;
8407;SDS011;4241;48.452;9.216;2023-10-13T04:09:39;482.77;;;191.87;;
8407;SDS011;4241;48.452;9.216;2023-10-13T04:12:32;476.50;;;187.50;;
8407;SDS011;4241;48.452;9.216;2023-10-13T04:15:17;472.53;;;185.60;;
8407;SDS011;4241;48.452;9.216;2023-10-13T04:17:46;475.57;;;191.97;;
8407;SDS011;4241;48.452;9.216;2023-10-13T04:20:15;475.97;;;185.33;;
8407;SDS011;4241;48.452;9.216;2023-10-13T04:22:58;476.40;;;189.00;;
8407;SDS011;4241;48.452;9.216;2023-10-13T04:25:43;476.83;;;186.97;;
8407;SDS011;4241;48.452;9.216;2023-10-13T04:28:33;473.93;;;182.40;;
8407;SDS011;4241;48.452;9.216;2023-10-13T04:30:59;473.30;;;184.43;;
8407;SDS011;4241;48.452;9.216;2023-10-13T04:33:37;472.70;;;185.47;;
8407;SDS011;4241;48.452;9.216;2023-10-13T04:36:18;478.80;;;190.63;;
8407;SDS011;4241;48.452;9.216;2023-10-13T04:39:01;480.23;;;190.43;;
8407;SDS011;4241;48.452;9.216;2023-10-13T04:41:35;473.70;;;183.53;;
8407;SDS011;4241;48.452;9.216;2023-10-13T04:44:04;480.83;;;190.83;;
8407;SDS011;4241;48.452;9.216;2023-10-13T04:46:46;476.23;;;184.90;;
8407;SDS011;4241;48.452;9.216;2023-10-13T04:49:27;474.30;;;185.33;;
8407;SDS011;4241;48.452;9.216;2023-10-13T04:52:02;476.33;;;186.97;;
8407;SDS011;4241;48.452;9.216;2023-10-13T04:54:38;473.73;;;181.80;;
8407;SDS011;4241;48.452;9.216;2023-10-13T04:57:15;475.20;;;185.40;;
8407;SDS011;4241;48.452;9.216;2023-10-13T04:59:56;477.07;;;185.33;;
8407;SDS011;4241;48.452;9.216;2023-10-13T05:02:37;480.03;;;189.60;;
8407;SDS011;4241;48.452;9.216;2023-10-13T05:05:37;480.27;;;190.63;;
8407;SDS011;4241;48.452;9.216;2023-10-13T05:08:37;481.17;;;191.20;;
8407;SDS011;4241;48.452;9.216;2023-10-13T05:11:21;477.73;;;185.53;;
8407;SDS011;4241;48.452;9.216;2023-10-13T05:14:05;474.20;;;186.40;;
8407;SDS011;4241;48.452;9.216;2023-10-13T05:16:49;474.30;;;186.73;;
8407;SDS011;4241;48.452;9.216;2023-10-13T05:19:45;474.73;;;185.07;;
8407;SDS011;4241;48.452;9.216;2023-10-13T05:22:29;475.60;;;187.30;;
8407;SDS011;4241;48.452;9.216;2023-10-13T05:25:15;479.20;;;190.10;;
8407;SDS011;4241;48.452;9.216;2023-10-13T05:28:10;481.97;;;192.03;;
8407;SDS011;4241;48.452;9.216;2023-10-13T05:30:58;475.53;;;186.27;;
8407;SDS011;4241;48.452;9.216;2023-10-13T05:33:42;471.20;;;182.30;;
8407;SDS011;4241;48.452;9.216;2023-10-13T05:36:27;475.03;;;187.47;;
8407;SDS011;4241;48.452;9.216;2023-10-13T05:39:12;475.47;;;183.20;;
8407;SDS011;4241;48.452;9.216;2023-10-13T05:41:58;479.53;;;190.00;;
8407;SDS011;4241;48.452;9.216;2023-10-13T05:44:42;487.40;;;196.30;;
8407;SDS011;4241;48.452;9.216;2023-10-13T05:47:21;473.00;;;184.27;;
8407;SDS011;4241;48.452;9.216;2023-10-13T05:50:06;480.23;;;188.63;;
8407;SDS011;4241;48.452;9.216;2023-10-13T05:52:53;474.73;;;185.63;;
8407;SDS011;4241;48.452;9.216;2023-10-13T05:55:38;478.30;;;189.83;;
8407;SDS011;4241;48.452;9.216;2023-10-13T05:58:23;473.03;;;183.63;;
8407;SDS011;4241;48.452;9.216;2023-10-13T06:01:11;472.17;;;181.23;;
8407;SDS011;4241;48.452;9.216;2023-10-13T06:03:56;473.93;;;182.57;;
8407;SDS011;4241;48.452;9.216;2023-10-13T06:06:40;473.67;;;180.80;;
8407;SDS011;4241;48.452;9.216;2023-10-13T06:09:24;473.43;;;182.33;;
8407;SDS011;4241;48.452;9.216;2023-10-13T06:12:08;474.97;;;183.57;;
8407;SDS011;4241;48.452;9.216;2023-10-13T06:14:55;469.97;;;179.50;;
8407;SDS011;4241;48.452;9.216;2023-10-13T06:17:39;469.70;;;176.63;;
8407;SDS011;4241;48.452;9.216;2023-10-13T06:20:23;475.23;;;186.20;;
8407;SDS011;4241;48.452;9.216;2023-10-13T06:23:04;481.60;;;192.97;;
8407;SDS011;4241;48.452;9.216;2023-10-13T06:25:50;470.70;;;183.20;;
8407;SDS011;4241;48.452;9.216;2023-10-13T06:28:34;473.60;;;186.00;;
8407;SDS011;4241;48.452;9.216;2023-10-13T06:31:09;476.17;;;190.17;;
8407;SDS011;4241;48.452;9.216;2023-10-13T06:33:46;479.93;;;193.27;;
8407;SDS011;4241;48.452;9.216;2023-10-13T06:36:13;479.03;;;191.37;;
8407;SDS011;4241;48.452;9.216;2023-10-13T06:38:39;475.33;;;190.30;;
8407;SDS011;4241;48.452;9.216;2023-10-13T06:41:07;477.60;;;194.70;;
8407;SDS011;4241;48.452;9.216;2023-10-13T06:43:34;479.40;;;193.87;;
8407;SDS011;4241;48.452;9.216;2023-10-13T06:46:05;478.00;;;193.93;;
8407;SDS011;4241;48.452;9.216;2023-10-13T06:48:33;479.20;;;191.80;;
8407;SDS011;4241;48.452;9.216;2023-10-13T06:51:00;475.30;;;190.33;;
8407;SDS011;4241;48.452;9.216;2023-10-13T06:53:42;477.30;;;190.87;;
8407;SDS011;4241;48.452;9.216;2023-10-13T06:56:12;471.73;;;184.17;;
8407;SDS011;4241;48.452;9.216;2023-10-13T06:58:47;476.30;;;191.57;;
8407;SDS011;4241;48.452;9.216;2023-10-13T07:01:15;479.83;;;195.77;;
8407;SDS011;4241;48.452;9.216;2023-10-13T07:03:48;476.83;;;192.33;;
8407;SDS011;4241;48.452;9.216;2023-10-13T07:06:18;480.97;;;196.37;;
8407;SDS011;4241;48.452;9.216;2023-10-13T07:08:45;475.33;;;192.27;;
8407;SDS011;4241;48.452;9.216;2023-10-13T07:11:17;477.57;;;192.87;;
8407;SDS011;4241;48.452;9.216;2023-10-13T07:13:58;477.87;;;193.37;;
8407;SDS011;4241;48.452;9.216;2023-10-13T07:16:25;476.07;;;192.77;;
8407;SDS011;4241;48.452;9.216;2023-10-13T07:19:01;481.60;;;197.40;;
8407;SDS011;4241;48.452;9.216;2023-10-13T07:21:31;476.90;;;192.60;;
8407;SDS011;4241;48.452;9.216;2023-10-13T07:23:58;485.40;;;200.60;;
8407;SDS011;4241;48.452;9.216;2023-10-13T07:26:36;471.73;;;185.90;;
8407;SDS011;4241;48.452;9.216;2023-10-13T07:29:07;477.20;;;194.23;;
8407;SDS011;4241;48.452;9.216;2023-10-13T07:31:35;475.23;;;194.07;;
8407;SDS011;4241;48.452;9.216;2023-10-13T07:34:04;477.80;;;194.77;;
8407;SDS011;4241;48.452;9.216;2023-10-13T07:36:37;484.13;;;200.33;;
8407;SDS011;4241;48.452;9.216;2023-10-13T07:39:08;478.57;;;196.50;;
8407;SDS011;4241;48.452;9.216;2023-10-13T07:41:47;477.70;;;193.97;;
8407;SDS011;4241;48.452;9.216;2023-10-13T07:44:17;473.50;;;191.80;;
8407;SDS011;4241;48.452;9.216;2023-10-13T07:46:49;476.93;;;195.97;;
8407;SDS011;4241;48.452;9.216;2023-10-13T07:49:28;481.03;;;199.10;;
8407;SDS011;4241;48.452;9.216;2023-10-13T07:51:57;479.10;;;199.27;;
8407;SDS011;4241;48.452;9.216;2023-10-13T07:54:35;480.03;;;198.83;;
8407;SDS011;4241;48.452;9.216;2023-10-13T07:57:05;481.83;;;203.80;;
8407;SDS011;4241;48.452;9.216;2023-10-13T07:59:33;481.60;;;206.37;;
8407;SDS011;4241;48.452;9.216;2023-10-13T08:02:12;489.60;;;213.37;;
8407;SDS011;4241;48.452;9.216;2023-10-13T08:04:59;484.03;;;209.57;;
8407;SDS011;4241;48.452;9.216;2023-10-13T08:07:29;481.60;;;210.13;;
8407;SDS011;4241;48.452;9.216;2023-10-13T08:09:56;490.03;;;219.20;;
8407;SDS011;4241;48.452;9.216;2023-10-13T08:12:24;485.43;;;218.50;;
8407;SDS011;4241;48.452;9.216;2023-10-13T08:14:52;488.90;;;222.20;;
8407;SDS011;4241;48.452;9.216;2023-10-13T08:17:37;481.47;;;214.20;;
8407;SDS011;4241;48.452;9.216;2023-10-13T08:20:11;490.07;;;225.13;;
8407;SDS011;4241;48.452;9.216;2023-10-13T08:22:39;488.83;;;228.60;;
8407;SDS011;4241;48.452;9.216;2023-10-13T08:25:12;489.60;;;228.87;;
8407;SDS011;4241;48.452;9.216;2023-10-13T08:27:58;493.20;;;238.27;;
8407;SDS011;4241;48.452;9.216;2023-10-13T08:30:47;494.33;;;240.93;;
8407;SDS011;4241;48.452;9.216;2023-10-13T08:33:18;490.67;;;238.93;;
8407;SDS011;4241;48.452;9.216;2023-10-13T08:35:50;491.20;;;244.67;;
8407;SDS011;4241;48.452;9.216;2023-10-13T08:38:53;489.00;;;243.43;;
8407;SDS011;4241;48.452;9.216;2023-10-13T08:41:21;493.80;;;249.13;;
8407;SDS011;4241;48.452;9.216;2023-10-13T08:44:03;489.97;;;248.47;;
8407;SDS011;4241;48.452;9.216;2023-10-13T08:46:34;493.63;;;253.97;;
8407;SDS011;4241;48.452;9.216;2023-10-13T08:49:31;495.70;;;254.83;;
8407;SDS011;4241;48.452;9.216;2023-10-13T08:52:07;495.50;;;258.90;;
8407;SDS011;4241;48.452;9.216;2023-10-13T08:54:50;492.23;;;257.93;;
8407;SDS011;4241;48.452;9.216;2023-10-13T08:57:38;494.30;;;259.33;;
8407;SDS011;4241;48.452;9.216;2023-10-13T09:00:15;496.20;;;263.67;;
8407;SDS011;4241;48.452;9.216;2023-10-13T09:03:13;506.87;;;276.73;;
8407;SDS011;4241;48.452;9.216;2023-10-13T09:05:54;499.10;;;271.87;;
8407;SDS011;4241;48.452;9.216;2023-10-13T09:08:28;498.07;;;272.10;;
8407;SDS011;4241;48.452;9.216;2023-10-13T09:11:01;502.60;;;276.93;;
8407;SDS011;4241;48.452;9.216;2023-10-13T09:13:36;496.93;;;274.77;;
8407;SDS011;4241;48.452;9.216;2023-10-13T09:16:09;502.20;;;281.23;;
8407;SDS011;4241;48.452;9.216;2023-10-13T09:18:42;507.13;;;288.10;;
8407;SDS011;4241;48.452;9.216;2023-10-13T09:21:11;499.57;;;284.13;;
8407;SDS011;4241;48.452;9.216;2023-10-13T09:23:58;501.63;;;290.13;;
8407;SDS011;4241;48.452;9.216;2023-10-13T09:26:38;503.43;;;293.30;;
8407;SDS011;4241;48.452;9.216;2023-10-13T09:29:13;499.90;;;288.47;;
8407;SDS011;4241;48.452;9.216;2023-10-13T09:31:43;501.77;;;297.30;;
8407;SDS011;4241;48.452;9.216;2023-10-13T09:34:19;504.53;;;302.93;;
8407;SDS011;4241;48.452;9.216;2023-10-13T09:36:45;502.80;;;304.70;;
8407;SDS011;4241;48.452;9.216;2023-10-13T09:39:21;506.93;;;305.57;;
8407;SDS011;4241;48.452;9.216;2023-10-13T09:42:00;498.63;;;299.87;;
8407;SDS011;4241;48.452;9.216;2023-10-13T09:44:26;515.03;;;317.63;;
8407;SDS011;4241;48.452;9.216;2023-10-13T09:46:56;499.77;;;306.53;;
8407;SDS011;4241;48.452;9.216;2023-10-13T09:49:32;501.43;;;305.90;;
8407;SDS011;4241;48.452;9.216;2023-10-13T09:52:13;506.07;;;310.60;;
8407;SDS011;4241;48.452;9.216;2023-10-13T09:54:46;501.43;;;310.00;;
8407;SDS011;4241;48.452;9.216;2023-10-13T09:57:29;502.97;;;310.40;;
8407;SDS011;4241;48.452;9.216;2023-10-13T10:00:08;509.10;;;320.57;;
8407;SDS011;4241;48.452;9.216;2023-10-13T10:03:05;504.33;;;315.73;;
8407;SDS011;4241;48.452;9.216;2023-10-13T10:05:40;507.23;;;320.63;;
8407;SDS011;4241;48.452;9.216;2023-10-13T10:08:06;508.27;;;327.23;;
8407;SDS011;4241;48.452;9.216;2023-10-13T10:10:43;505.83;;;321.73;;
8407;SDS011;4241;48.452;9.216;2023-10-13T10:13:19;521.53;;;340.00;;
8407;SDS011;4241;48.452;9.216;2023-10-13T10:15:59;506.97;;;325.93;;
8407;SDS011;4241;48.452;9.216;2023-10-13T10:18:34;509.70;;;333.70;;
8407;SDS011;4241;48.452;9.216;2023-10-13T10:21:05;504.80;;;329.40;;
8407;SDS011;4241;48.452;9.216;2023-10-13T10:23:34;512.30;;;341.43;;
8407;SDS011;4241;48.452;9.216;2023-10-13T10:26:11;506.67;;;337.87;;
8407;SDS011;4241;48.452;9.216;2023-10-13T10:28:41;507.10;;;338.80;;
8407;SDS011;4241;48.452;9.216;2023-10-13T10:31:09;506.33;;;336.03;;
8407;SDS011;4241;48.452;9.216;2023-10-13T10:33:40;514.60;;;346.07;;
8407;SDS011;4241;48.452;9.216;2023-10-13T10:36:08;510.50;;;339.90;;
8407;SDS011;4241;48.452;9.216;2023-10-13T10:38:50;503.73;;;334.73;;
8407;SDS011;4241;48.452;9.216;2023-10-13T10:41:25;506.90;;;334.50;;
8407;SDS011;4241;48.452;9.216;2023-10-13T10:43:55;507.87;;;336.40;;
8407;SDS011;4241;48.452;9.216;2023-10-13T10:46:25;504.43;;;332.40;;
8407;SDS011;4241;48.452;9.216;2023-10-13T10:48:54;507.23;;;332.53;;
8407;SDS011;4241;48.452;9.216;2023-10-13T10:51:26;504.03;;;332.70;;
8407;SDS011;4241;48.452;9.216;2023-10-13T10:53:57;509.50;;;333.87;;
8407;SDS011;4241;48.452;9.216;2023-10-13T10:56:36;502.30;;;327.20;;
8407;SDS011;4241;48.452;9.216;2023-10-13T10:59:04;510.13;;;336.07;;
8407;SDS011;4241;48.452;9.216;2023-10-13T11:01:33;505.93;;;332.43;;
8407;SDS011;4241;48.452;9.216;2023-10-13T11:04:14;503.20;;;327.03;;
8407;SDS011;4241;48.452;9.216;2023-10-13T11:06:46;509.30;;;334.37;;
8407;SDS011;4241;48.452;9.216;2023-10-13T11:09:14;508.30;;;336.60;;
8407;SDS011;4241;48.452;9.216;2023-10-13T11:11:56;505.33;;;329.43;;
8407;SDS011;4241;48.452;9.216;2023-10-13T11:14:40;509.83;;;336.37;;
8407;SDS011;4241;48.452;9.216;2023-10-13T11:17:08;504.07;;;332.77;;
8407;SDS011;4241;48.452;9.216;2023-10-13T11:19:47;508.43;;;339.17;;
8407;SDS011;4241;48.452;9.216;2023-10-13T11:22:14;509.87;;;339.97;;
8407;SDS011;4241;48.452;9.216;2023-10-13T11:24:57;507.20;;;339.17;;
8407;SDS011;4241;48.452;9.216;2023-10-13T11:27:28;511.87;;;345.70;;
8407;SDS011;4241;48.452;9.216;2023-10-13T11:30:09;516.47;;;353.30;;
8407;SDS011;4241;48.452;9.216;2023-10-13T11:32:39;509.67;;;345.73;;
8407;SDS011;4241;48.452;9.216;2023-10-13T11:35:09;515.80;;;352.70;;
8407;SDS011;4241;48.452;9.216;2023-10-13T11:37:45;504.57;;;339.03;;
8407;SDS011;4241;48.452;9.216;2023-10-13T11:40:21;508.50;;;340.60;;
8407;SDS011;4241;48.452;9.216;2023-10-13T11:43:08;516.03;;;348.10;;
8407;SDS011;4241;48.452;9.216;2023-10-13T11:45:39;505.67;;;339.93;;
8407;SDS011;4241;48.452;9.216;2023-10-13T11:48:19;506.73;;;342.13;;
8407;SDS011;4241;48.452;9.216;2023-10-13T11:51:00;511.00;;;345.67;;
8407;SDS011;4241;48.452;9.216;2023-10-13T11:53:31;504.90;;;344.60;;
8407;SDS011;4241;48.452;9.216;2023-10-13T11:55:58;511.37;;;345.17;;
8407;SDS011;4241;48.452;9.216;2023-10-13T11:58:25;504.20;;;340.30;;
8407;SDS011;4241;48.452;9.216;2023-10-13T12:00:53;507.40;;;341.33;;
8407;SDS011;4241;48.452;9.216;2023-10-13T12:03:33;512.53;;;349.77;;
8407;SDS011;4241;48.452;9.216;2023-10-13T12:06:27;522.47;;;356.17;;
8407;SDS011;4241;48.452;9.216;2023-10-13T12:09:00;505.13;;;341.33;;
8407;SDS011;4241;48.452;9.216;2023-10-13T12:11:39;510.13;;;344.53;;
8407;SDS011;4241;48.452;9.216;2023-10-13T12:14:06;504.53;;;337.30;;
8407;SDS011;4241;48.452;9.216;2023-10-13T12:16:44;509.00;;;339.43;;
8407;SDS011;4241;48.452;9.216;2023-10-13T12:19:14;511.57;;;342.73;;
8407;SDS011;4241;48.452;9.216;2023-10-13T12:21:43;506.37;;;339.27;;
8407;SDS011;4241;48.452;9.216;2023-10-13T12:24:12;514.50;;;343.47;;
8407;SDS011;4241;48.452;9.216;2023-10-13T12:26:47;504.63;;;331.63;;
8407;SDS011;4241;48.452;9.216;2023-10-13T12:29:20;505.97;;;333.73;;
8407;SDS011;4241;48.452;9.216;2023-10-13T12:31:53;509.77;;;338.13;;
8407;SDS011;4241;48.452;9.216;2023-10-13T12:34:32;506.17;;;335.97;;
8407;SDS011;4241;48.452;9.216;2023-10-13T12:37:23;507.57;;;337.83;;
8407;SDS011;4241;48.452;9.216;2023-10-13T12:40:04;514.23;;;345.83;;
8407;SDS011;4241;48.452;9.216;2023-10-13T12:42:49;514.30;;;341.97;;
8407;SDS011;4241;48.452;9.216;2023-10-13T12:45:48;512.33;;;340.30;;
8407;SDS011;4241;48.452;9.216;2023-10-13T12:48:34;511.07;;;341.17;;
8407;SDS011;4241;48.452;9.216;2023-10-13T12:51:20;504.83;;;333.83;;
8407;SDS011;4241;48.452;9.216;2023-10-13T12:54:06;505.83;;;332.53;;
8407;SDS011;4241;48.452;9.216;2023-10-13T12:56:40;505.80;;;333.07;;
8407;SDS011;4241;48.452;9.216;2023-10-13T12:59:08;508.93;;;337.97;;
8407;SDS011;4241;48.452;9.216;2023-10-13T13:01:38;508.17;;;339.67;;
8407;SDS011;4241;48.452;9.216;2023-10-13T13:04:07;503.03;;;334.23;;
8407;SDS011;4241;48.452;9.216;2023-10-13T13:06:37;505.60;;;336.83;;
8407;SDS011;4241;48.452;9.216;2023-10-13T13:09:06;509.13;;;335.83;;
8407;SDS011;4241;48.452;9.216;2023-10-13T13:11:35;508.87;;;340.50;;
8407;SDS011;4241;48.452;9.216;2023-10-13T13:14:04;510.80;;;343.03;;
8407;SDS011;4241;48.452;9.216;2023-10-13T13:16:33;508.10;;;337.87;;
8407;SDS011;4241;48.452;9.216;2023-10-13T13:19:01;510.77;;;341.43;;
8407;SDS011;4241;48.452;9.216;2023-10-13T13:21:35;503.50;;;332.50;;
8407;SDS011;4241;48.452;9.216;2023-10-13T13:24:02;511.00;;;341.13;;
8407;SDS011;4241;48.452;9.216;2023-10-13T13:26:31;507.20;;;334.43;;
8407;SDS011;4241;48.452;9.216;2023-10-13T13:28:58;513.10;;;341.33;;
8407;SDS011;4241;48.452;9.216;2023-10-13T13:31:25;507.43;;;334.53;;
8407;SDS011;4241;48.452;9.216;2023-10-13T13:33:54;511.87;;;339.53;;
8407;SDS011;4241;48.452;9.216;2023-10-13T13:36:21;506.33;;;334.17;;
8407;SDS011;4241;48.452;9.216;2023-10-13T13:38:48;511.90;;;337.27;;
8407;SDS011;4241;48.452;9.216;2023-10-13T13:41:16;506.70;;;330.50;;
8407;SDS011;4241;48.452;9.216;2023-10-13T13:43:45;511.37;;;341.07;;
8407;SDS011;4241;48.452;9.216;2023-10-13T13:46:22;509.37;;;334.33;;
8407;SDS011;4241;48.452;9.216;2023-10-13T13:48:52;506.23;;;330.20;;
8407;SDS011;4241;48.452;9.216;2023-10-13T13:51:24;507.57;;;333.73;;
8407;SDS011;4241;48.452;9.216;2023-10-13T13:53:57;507.57;;;334.67;;
8407;SDS011;4241;48.452;9.216;2023-10-13T13:56:25;512.50;;;337.77;;
8407;SDS011;4241;48.452;9.216;2023-10-13T13:58:54;506.67;;;335.10;;
8407;SDS011;4241;48.452;9.216;2023-10-13T14:01:21;514.20;;;346.03;;
8407;SDS011;4241;48.452;9.216;2023-10-13T14:03:50;506.83;;;332.20;;
8407;SDS011;4241;48.452;9.216;2023-10-13T14:06:21;512.87;;;344.17;;
8407;SDS011;4241;48.452;9.216;2023-10-13T14:08:50;508.37;;;336.47;;
8407;SDS011;4241;48.452;9.216;2023-10-13T14:11:20;511.47;;;343.33;;
8407;SDS011;4241;48.452;9.216;2023-10-13T14:14:09;515.07;;;343.30;;
8407;SDS011;4241;48.452;9.216;2023-10-13T14:16:38;506.63;;;333.83;;
8407;SDS011;4241;48.452;9.216;2023-10-13T14:19:09;510.00;;;337.40;;
8407;SDS011;4241;48.452;9.216;2023-10-13T14:21:36;506.33;;;334.67;;
8407;SDS011;4241;48.452;9.216;2023-10-13T14:24:04;510.17;;;339.67;;
8407;SDS011;4241;48.452;9.216;2023-10-13T14:26:38;505.87;;;334.43;;
8407;SDS011;4241;48.452;9.216;2023-10-13T14:29:09;508.93;;;336.80;;
8407;SDS011;4241;48.452;9.216;2023-10-13T14:31:39;507.37;;;332.77;;
8407;SDS011;4241;48.452;9.216;2023-10-13T14:34:07;508.50;;;337.80;;
8407;SDS011;4241;48.452;9.216;2023-10-13T14:36:35;511.77;;;339.37;;
8407;SDS011;4241;48.452;9.216;2023-10-13T14:39:02;510.37;;;339.93;;
8407;SDS011;4241;48.452;9.216;2023-10-13T14:41:34;514.50;;;338.00;;
8407;SDS011;4241;48.452;9.216;2023-10-13T14:44:01;509.47;;;334.53;;
8407;SDS011;4241;48.452;9.216;2023-10-13T14:46:33;515.70;;;339.13;;
8407;SDS011;4241;48.452;9.216;2023-10-13T14:49:04;504.00;;;328.13;;
8407;SDS011;4241;48.452;9.216;2023-10-13T14:51:31;508.73;;;329.97;;
8407;SDS011;4241;48.452;9.216;2023-10-13T14:53:58;505.10;;;327.97;;
8407;SDS011;4241;48.452;9.216;2023-10-13T14:56:26;511.03;;;331.30;;
8407;SDS011;4241;48.452;9.216;2023-10-13T14:58:53;506.10;;;328.07;;
8407;SDS011;4241;48.452;9.216;2023-10-13T15:01:21;508.47;;;331.23;;